Time;durP1;ratioP1;P1;durP2;ratioP2;P2;SDS_P1;SDS_P2;PMS_P1;PMS_P2;Temp;Humidity;BMP_temperature;BMP_pressure;BME280_temperature;BME280_humidity;BME280_pressure;Samples;Min_cycle;Max_cycle;Signal;HPM_P1;HPM_P2
2022/07/28 00:00:39;;;;;;;6.85;2.80;;;;;;;;;;5052287;27;95219;-75
2022/07/28 00:03:05;;;;;;;10.40;2.88;;;;;;;;;;5052488;27;96498;-75
2022/07/28 00:05:32;;;;;;;9.13;2.50;;;;;;;;;;5050084;27;97329;-77
2022/07/28 00:07:59;;;;;;;4.65;2.50;;;;;;;;;;5053086;27;95448;-75
2022/07/28 00:10:26;;;;;;;8.35;2.30;;;;;;;;;;5047123;27;96885;-75
2022/07/28 00:12:52;;;;;;;5.97;2.13;;;;;;;;;;5053073;27;97049;-75
2022/07/28 00:15:19;;;;;;;4.50;2.05;;;;;;;;;;5051454;27;96850;-75
2022/07/28 00:17:45;;;;;;;6.63;2.33;;;;;;;;;;5052924;27;97477;-75
2022/07/28 00:20:11;;;;;;;4.20;1.90;;;;;;;;;;5051953;27;95153;-76
2022/07/28 00:22:41;;;;;;;6.68;2.08;;;;;;;;;;5049072;27;97294;-76
2022/07/28 00:25:09;;;;;;;3.47;1.70;;;;;;;;;;5050722;27;97495;-75
2022/07/28 00:27:36;;;;;;;5.68;1.85;;;;;;;;;;5045974;27;95356;-75
2022/07/28 00:30:06;;;;;;;7.72;2.30;;;;;;;;;;5051111;27;96347;-75
2022/07/28 00:32:33;;;;;;;6.82;1.90;;;;;;;;;;5050737;27;97940;-76
2022/07/28 00:34:59;;;;;;;3.85;1.80;;;;;;;;;;5054690;27;95330;-75
2022/07/28 00:37:27;;;;;;;7.25;2.00;;;;;;;;;;5051314;27;98115;-76
2022/07/28 00:39:54;;;;;;;4.68;2.10;;;;;;;;;;5053308;27;95403;-76
2022/07/28 00:42:21;;;;;;;3.35;1.90;;;;;;;;;;5049891;27;97244;-75
2022/07/28 00:44:48;;;;;;;4.68;2.00;;;;;;;;;;5048249;27;96798;-75
2022/07/28 00:47:14;;;;;;;6.20;2.28;;;;;;;;;;5036259;27;95260;-75
2022/07/28 00:49:42;;;;;;;4.10;1.80;;;;;;;;;;5031116;28;97688;-75
2022/07/28 00:52:10;;;;;;;4.75;2.05;;;;;;;;;;5033666;27;98066;-75
2022/07/28 00:54:37;;;;;;;5.22;1.73;;;;;;;;;;5044864;27;95513;-75
2022/07/28 00:57:03;;;;;;;4.78;2.10;;;;;;;;;;5050002;27;97997;-75
2022/07/28 00:59:30;;;;;;;10.43;2.20;;;;;;;;;;5051840;27;95232;-75
2022/07/28 01:02:02;;;;;;;5.07;2.05;;;;;;;;;;5050941;27;96816;-75
2022/07/28 01:04:29;;;;;;;3.67;1.80;;;;;;;;;;5048891;27;98139;-75
2022/07/28 01:07:01;;;;;;;9.18;2.45;;;;;;;;;;5049608;27;95475;-75
2022/07/28 01:09:28;;;;;;;;;;;;;;;;;;5053004;27;96794;-76
2022/07/28 01:12:09;;;;;;;5.10;1.90;;;;;;;;;;5048593;27;126792;-75
2022/07/28 01:14:38;;;;;;;3.53;1.90;;;;;;;;;;5051105;27;95548;-75
2022/07/28 01:17:29;;;;;;;7.50;2.10;;;;;;;;;;5053429;27;97438;-75
2022/07/28 01:19:58;;;;;;;8.57;2.30;;;;;;;;;;5045736;27;95447;-75
2022/07/28 01:22:28;;;;;;;3.70;2.00;;;;;;;;;;5049979;27;97304;-75
2022/07/28 01:25:00;;;;;;;4.22;2.20;;;;;;;;;;5051449;27;96495;-75
2022/07/28 01:27:50;;;;;;;4.20;2.08;;;;;;;;;;5052153;27;95569;-75
2022/07/28 01:30:38;;;;;;;3.00;1.80;;;;;;;;;;5055251;27;97226;-74
2022/07/28 01:33:16;;;;;;;6.90;2.53;;;;;;;;;;5054823;27;97981;-76
2022/07/28 01:35:45;;;;;;;5.18;1.92;;;;;;;;;;5053403;27;96785;-75
2022/07/28 01:38:12;;;;;;;4.28;1.80;;;;;;;;;;5053222;27;97051;-75
2022/07/28 01:40:41;;;;;;;7.25;2.03;;;;;;;;;;5054551;27;98293;-75
2022/07/28 01:43:10;;;;;;;5.30;2.45;;;;;;;;;;5050069;27;97562;-75
2022/07/28 01:45:40;;;;;;;5.95;2.20;;;;;;;;;;5054019;27;98169;-75
2022/07/28 01:48:07;;;;;;;8.73;2.33;;;;;;;;;;5053303;27;95582;-75
2022/07/28 01:50:38;;;;;;;8.27;2.17;;;;;;;;;;5053128;27;96324;-75
2022/07/28 01:53:07;;;;;;;5.45;2.30;;;;;;;;;;5054705;27;97292;-75
2022/07/28 01:55:34;;;;;;;4.70;2.28;;;;;;;;;;5051825;27;95444;-75
2022/07/28 01:58:01;;;;;;;7.10;2.38;;;;;;;;;;5055019;27;96450;-75
2022/07/28 02:00:28;;;;;;;6.88;2.85;;;;;;;;;;5053614;27;96199;-75
2022/07/28 02:02:55;;;;;;;9.13;2.40;;;;;;;;;;5053292;27;96075;-75
2022/07/28 02:05:23;;;;;;;4.95;2.28;;;;;;;;;;5053269;27;98048;-75
2022/07/28 02:07:50;;;;;;;6.05;2.40;;;;;;;;;;5053903;27;95425;-75
2022/07/28 02:10:17;;;;;;;4.15;2.00;;;;;;;;;;5054985;27;96191;-75
2022/07/28 02:12:45;;;;;;;4.78;2.30;;;;;;;;;;5052449;27;97940;-75
2022/07/28 02:15:12;;;;;;;7.60;2.10;;;;;;;;;;5052771;27;95341;-75
2022/07/28 02:17:41;;;;;;;7.63;2.22;;;;;;;;;;5054428;27;97519;-76
2022/07/28 02:20:09;;;;;;;6.05;2.40;;;;;;;;;;5054386;27;97729;-75
2022/07/28 02:22:38;;;;;;;5.82;2.10;;;;;;;;;;5050914;27;96525;-75
2022/07/28 02:25:05;;;;;;;4.80;2.05;;;;;;;;;;5057131;27;96311;-75
2022/07/28 02:27:34;;;;;;;5.10;2.30;;;;;;;;;;5053687;27;95460;-75
2022/07/28 02:30:09;;;;;;;5.75;2.65;;;;;;;;;;5054367;27;97534;-75
2022/07/28 02:32:41;;;;;;;5.07;2.20;;;;;;;;;;5048968;27;97699;-75
2022/07/28 02:35:14;;;;;;;3.88;2.20;;;;;;;;;;5054276;27;95312;-75
2022/07/28 02:37:45;;;;;;;3.73;2.13;;;;;;;;;;5050229;27;97547;-75
2022/07/28 02:40:13;;;;;;;16.55;2.63;;;;;;;;;;5050796;27;97571;-75
2022/07/28 02:42:40;;;;;;;7.72;2.53;;;;;;;;;;5054081;27;95417;-74
2022/07/28 02:45:08;;;;;;;5.22;2.53;;;;;;;;;;5052888;27;97302;-75
2022/07/28 02:47:37;;;;;;;9.63;2.70;;;;;;;;;;5053840;27;97785;-75
2022/07/28 02:50:05;;;;;;;10.90;4.60;;;;;;;;;;5053742;27;97732;-75
2022/07/28 02:52:34;;;;;;;5.05;2.15;;;;;;;;;;5051226;27;97897;-75
2022/07/28 02:55:01;;;;;;;3.95;2.35;;;;;;;;;;5051942;27;97007;-75
2022/07/28 02:57:28;;;;;;;10.98;2.70;;;;;;;;;;5050477;27;96701;-75
2022/07/28 02:59:55;;;;;;;8.13;2.30;;;;;;;;;;5053126;27;96897;-75
2022/07/28 03:02:22;;;;;;;8.68;2.53;;;;;;;;;;5052214;27;95454;-75
2022/07/28 03:05:00;;;;;;;4.78;2.55;;;;;;;;;;5053438;27;97400;-75
2022/07/28 03:07:28;;;;;;;7.93;2.55;;;;;;;;;;5054332;27;97937;-75
2022/07/28 03:09:55;;;;;;;6.45;2.38;;;;;;;;;;5054144;27;96348;-75
2022/07/28 03:12:21;;;;;;;6.60;2.42;;;;;;;;;;5051704;27;98134;-75
2022/07/28 03:14:48;;;;;;;6.25;2.40;;;;;;;;;;5054236;27;95380;-75
2022/07/28 03:17:15;;;;;;;7.28;2.90;;;;;;;;;;5050585;27;97206;-75
2022/07/28 03:19:42;;;;;;;11.20;2.45;;;;;;;;;;5053202;27;97687;-75
2022/07/28 03:22:08;;;;;;;5.97;2.38;;;;;;;;;;5052706;27;95374;-75
2022/07/28 03:24:38;;;;;;;5.00;2.47;;;;;;;;;;5053164;27;96018;-75
2022/07/28 03:27:11;;;;;;;5.72;2.35;;;;;;;;;;5048346;27;97723;-75
2022/07/28 03:29:38;;;;;;;4.88;2.13;;;;;;;;;;5054124;27;96394;-76
2022/07/28 03:32:05;;;;;;;6.43;2.45;;;;;;;;;;5052893;27;97439;-75
2022/07/28 03:34:32;;;;;;;5.70;2.70;;;;;;;;;;5053162;27;95368;-75
2022/07/28 03:37:07;;;;;;;8.98;2.70;;;;;;;;;;5049948;27;97289;-75
2022/07/28 03:39:36;;;;;;;4.53;2.30;;;;;;;;;;5052827;27;97910;-75
2022/07/28 03:42:05;;;;;;;7.28;2.70;;;;;;;;;;5051481;27;95888;-75
2022/07/28 03:44:32;;;;;;;6.13;2.70;;;;;;;;;;5052412;27;97486;-75
2022/07/28 03:46:58;;;;;;;8.38;2.80;;;;;;;;;;5050048;27;98031;-74
2022/07/28 03:49:25;;;;;;;4.88;2.50;;;;;;;;;;5050164;27;95207;-75
2022/07/28 03:51:52;;;;;;;9.85;2.95;;;;;;;;;;5054288;27;96336;-75
2022/07/28 03:54:18;;;;;;;6.70;2.92;;;;;;;;;;5052682;27;95379;-75
2022/07/28 03:56:45;;;;;;;11.23;2.65;;;;;;;;;;5051519;27;97475;-75
2022/07/28 03:59:11;;;;;;;7.97;2.92;;;;;;;;;;5050674;27;98018;-75
2022/07/28 04:01:38;;;;;;;6.65;2.90;;;;;;;;;;5051342;27;95344;-75
2022/07/28 04:04:05;;;;;;;9.38;3.15;;;;;;;;;;5049328;27;97493;-75
2022/07/28 04:06:31;;;;;;;10.32;3.00;;;;;;;;;;5048616;27;98028;-75
2022/07/28 04:08:58;;;;;;;9.50;3.13;;;;;;;;;;5051929;27;96964;-75
2022/07/28 04:11:24;;;;;;;6.38;2.92;;;;;;;;;;5050308;27;97329;-76
2022/07/28 04:13:51;;;;;;;7.47;2.80;;;;;;;;;;5056048;27;97919;-76
2022/07/28 04:16:17;;;;;;;11.10;3.28;;;;;;;;;;5051172;27;97143;-76
2022/07/28 04:18:47;;;;;;;5.88;2.75;;;;;;;;;;5050152;27;96904;-76
2022/07/28 04:21:14;;;;;;;6.75;3.10;;;;;;;;;;5052766;27;95258;-76
2022/07/28 04:23:41;;;;;;;7.35;2.92;;;;;;;;;;5052793;27;97532;-76
2022/07/28 04:26:07;;;;;;;7.00;2.97;;;;;;;;;;5050175;27;99899;-76
2022/07/28 04:28:34;;;;;;;7.70;3.10;;;;;;;;;;5050485;27;95319;-76
2022/07/28 04:31:00;;;;;;;8.25;3.10;;;;;;;;;;5051790;27;97601;-76
2022/07/28 04:33:27;;;;;;;8.80;3.20;;;;;;;;;;5050661;27;98050;-76
2022/07/28 04:35:53;;;;;;;6.35;2.97;;;;;;;;;;5054725;27;95294;-76
2022/07/28 04:38:20;;;;;;;5.03;3.15;;;;;;;;;;5048662;27;98046;-76
2022/07/28 04:40:47;;;;;;;6.35;2.60;;;;;;;;;;5049253;27;95423;-76
2022/07/28 04:43:13;;;;;;;6.03;2.70;;;;;;;;;;5051513;27;97340;-76
2022/07/28 04:45:40;;;;;;;8.70;3.10;;;;;;;;;;5050842;27;98216;-76
2022/07/28 04:48:19;;;;;;;4.97;2.72;;;;;;;;;;5049695;27;95226;-76
2022/07/28 04:50:46;;;;;;;6.28;2.95;;;;;;;;;;5052243;27;97257;-75
2022/07/28 04:53:13;;;;;;;7.85;2.90;;;;;;;;;;5050934;27;98042;-76
2022/07/28 04:55:39;;;;;;;9.60;3.08;;;;;;;;;;5050906;27;95429;-76
2022/07/28 04:58:06;;;;;;;5.80;2.90;;;;;;;;;;5054730;27;96826;-76
2022/07/28 05:00:34;;;;;;;7.32;3.10;;;;;;;;;;5053489;27;95413;-76
2022/07/28 19:03:07;;;;;;;2.83;1.30;;;;;;;;;;5070998;27;95974;-76
2022/07/28 19:05:34;;;;;;;4.70;1.42;;;;;;;;;;5047435;27;97505;-77
2022/07/28 19:08:05;;;;;;;4.78;1.40;;;;;;;;;;5046213;27;95640;-76
2022/07/28 19:10:31;;;;;;;2.85;1.50;;;;;;;;;;5034010;27;97043;-77
2022/07/28 19:12:58;;;;;;;6.65;1.67;;;;;;;;;;5048027;27;97351;-77
2022/07/28 19:15:24;;;;;;;6.80;1.40;;;;;;;;;;5059405;27;95692;-77
2022/07/28 19:17:51;;;;;;;2.88;1.23;;;;;;;;;;5050234;27;95725;-77
2022/07/28 19:20:37;;;;;;;6.80;1.58;;;;;;;;;;5050653;27;97538;-77
2022/07/28 19:23:04;;;;;;;5.72;1.67;;;;;;;;;;5060173;27;96179;-77
2022/07/28 19:25:31;;;;;;;3.97;1.20;;;;;;;;;;5047872;27;97542;-77
2022/07/28 19:27:57;;;;;;;4.32;1.33;;;;;;;;;;5044936;27;96829;-77
2022/07/28 19:30:24;;;;;;;1.90;1.20;;;;;;;;;;5051655;27;96839;-77
2022/07/28 19:32:50;;;;;;;5.25;1.50;;;;;;;;;;5052042;27;97457;-77
2022/07/28 19:35:16;;;;;;;2.88;1.70;;;;;;;;;;5056755;27;95691;-77
2022/07/28 19:37:43;;;;;;;3.63;1.50;;;;;;;;;;5047336;27;97027;-77
2022/07/28 19:40:10;;;;;;;4.47;1.60;;;;;;;;;;5043034;27;97426;-77
2022/07/28 19:42:37;;;;;;;3.17;1.30;;;;;;;;;;5051338;27;95228;-77
2022/07/28 19:45:04;;;;;;;2.47;1.35;;;;;;;;;;5048456;27;96942;-77
2022/07/28 19:47:31;;;;;;;4.07;1.30;;;;;;;;;;5045253;27;95288;-76
2022/07/28 19:50:03;;;;;;;2.47;1.30;;;;;;;;;;5041517;27;97166;-76
2022/07/28 19:52:30;;;;;;;2.40;1.40;;;;;;;;;;5043330;27;96568;-76
2022/07/28 19:54:56;;;;;;;5.43;2.10;;;;;;;;;;5049547;27;95482;-76
2022/07/28 19:57:23;;;;;;;2.90;1.23;;;;;;;;;;5055477;27;96852;-76
2022/07/28 19:59:49;;;;;;;3.40;1.63;;;;;;;;;;5050302;27;97321;-76
2022/07/28 20:02:16;;;;;;;3.30;1.45;;;;;;;;;;5046453;27;95327;-77
2022/07/28 20:04:42;;;;;;;7.43;1.55;;;;;;;;;;5042399;27;96944;-77
2022/07/28 20:07:11;;;;;;;3.50;1.50;;;;;;;;;;5051945;27;97196;-77
2022/07/28 20:09:38;;;;;;;3.13;1.50;;;;;;;;;;5047537;27;96777;-76
2022/07/28 20:12:05;;;;;;;5.57;1.70;;;;;;;;;;5054490;27;97769;-76
2022/07/28 20:14:34;;;;;;;5.35;1.58;;;;;;;;;;5051797;27;96666;-76
2022/07/28 20:17:00;;;;;;;6.13;1.60;;;;;;;;;;5034807;27;96945;-77
2022/07/28 20:19:27;;;;;;;5.93;1.90;;;;;;;;;;5033751;27;97529;-75
2022/07/28 20:21:53;;;;;;;3.53;1.45;;;;;;;;;;5054065;27;95471;-77
2022/07/28 20:24:20;;;;;;;3.22;1.40;;;;;;;;;;5055266;27;96759;-77
2022/07/28 20:26:46;;;;;;;2.45;1.30;;;;;;;;;;5048761;27;97442;-75
2022/07/28 20:29:14;;;;;;;2.55;1.27;;;;;;;;;;5038728;27;95194;-78
2022/07/28 20:31:41;;;;;;;3.45;1.60;;;;;;;;;;5034932;27;97294;-77
2022/07/28 20:34:11;;;;;;;3.53;1.60;;;;;;;;;;5035030;28;95384;-75
2022/07/28 20:36:38;;;;;;;5.10;1.52;;;;;;;;;;5035448;27;96885;-78
2022/07/28 20:39:04;;;;;;;6.75;1.73;;;;;;;;;;5054595;27;97736;-77
2022/07/28 20:41:50;;;;;;;3.67;1.60;;;;;;;;;;5038101;27;95273;-75
2022/07/28 20:44:19;;;;;;;5.82;1.67;;;;;;;;;;5031636;27;96950;-75
2022/07/28 20:46:57;;;;;;;3.90;1.45;;;;;;;;;;5036544;27;97379;-75
2022/07/28 20:49:26;;;;;;;5.70;1.70;;;;;;;;;;5034661;28;95073;-75
2022/07/28 20:51:54;;;;;;;3.63;1.90;;;;;;;;;;5036280;28;96928;-75
2022/07/28 20:54:21;;;;;;;3.53;1.60;;;;;;;;;;5033759;27;96796;-75
2022/07/28 20:56:47;;;;;;;2.30;1.50;;;;;;;;;;5034502;28;96800;-75
2022/07/28 20:59:14;;;;;;;7.97;1.50;;;;;;;;;;5045567;27;97367;-75
2022/07/28 21:01:40;;;;;;;3.20;1.40;;;;;;;;;;5052174;27;97632;-75
2022/07/28 21:04:07;;;;;;;3.53;1.50;;;;;;;;;;5047198;27;97532;-75
2022/07/28 21:06:36;;;;;;;7.88;1.80;;;;;;;;;;5034060;28;97310;-76
2022/07/28 21:09:03;;;;;;;4.43;1.65;;;;;;;;;;5043924;27;95247;-75
2022/07/28 21:11:30;;;;;;;3.38;2.15;;;;;;;;;;5037430;27;96040;-75
2022/07/28 21:14:00;;;;;;;5.80;1.63;;;;;;;;;;5035430;27;96795;-75
2022/07/28 21:16:27;;;;;;;3.63;1.42;;;;;;;;;;5033359;28;96779;-75
2022/07/28 21:18:53;;;;;;;4.97;1.90;;;;;;;;;;5033531;27;97384;-75
2022/07/28 21:21:20;;;;;;;1.98;1.42;;;;;;;;;;5033466;27;95363;-75
2022/07/28 21:23:48;;;;;;;5.45;1.63;;;;;;;;;;5034488;27;95692;-75
2022/07/28 21:26:14;;;;;;;3.25;1.58;;;;;;;;;;5031891;28;97376;-75
2022/07/28 21:31:25;;;;;;;5.60;1.30;;;;;;;;;;5048265;27;97186;-75
2022/07/28 21:33:52;;;;;;;8.90;1.70;;;;;;;;;;5045323;27;96943;-75
2022/07/28 21:36:19;;;;;;;6.13;1.73;;;;;;;;;;5045531;27;96858;-75
2022/07/28 21:38:45;;;;;;;4.40;1.60;;;;;;;;;;5052271;27;96546;-75
2022/07/28 21:41:12;;;;;;;6.30;1.63;;;;;;;;;;5038583;27;95283;-75
2022/07/28 21:43:38;;;;;;;2.30;1.40;;;;;;;;;;5044389;27;97113;-75
2022/07/28 21:46:04;;;;;;;3.67;1.40;;;;;;;;;;5051772;27;96626;-75
2022/07/28 21:48:31;;;;;;;4.20;1.70;;;;;;;;;;5032105;27;95273;-75
2022/07/28 21:50:57;;;;;;;3.03;1.30;;;;;;;;;;5033666;28;96769;-75
2022/07/28 21:53:24;;;;;;;2.72;1.40;;;;;;;;;;5033549;28;97360;-75
2022/07/28 21:55:53;;;;;;;2.60;1.30;;;;;;;;;;5044253;27;95581;-75
2022/07/28 21:58:20;;;;;;;3.83;1.80;;;;;;;;;;5044164;27;97520;-75
2022/07/28 22:00:46;;;;;;;3.00;1.50;;;;;;;;;;5032566;27;95372;-76
2022/07/28 22:03:13;;;;;;;2.80;1.60;;;;;;;;;;5033579;27;96764;-75
2022/07/28 22:05:39;;;;;;;3.60;1.40;;;;;;;;;;5034054;27;96621;-75
2022/07/28 22:08:08;;;;;;;4.97;1.75;;;;;;;;;;5033556;27;95536;-75
2022/07/28 22:10:34;;;;;;;4.65;1.70;;;;;;;;;;5037426;27;96192;-75
2022/07/28 22:13:00;;;;;;;3.05;1.60;;;;;;;;;;5052548;27;98193;-75
2022/07/28 22:15:27;;;;;;;2.53;1.40;;;;;;;;;;5042710;27;95722;-75
2022/07/28 22:17:53;;;;;;;9.73;1.63;;;;;;;;;;5018272;27;97155;-75
2022/07/28 22:20:20;;;;;;;4.10;1.55;;;;;;;;;;5036860;27;95840;-76
2022/07/28 22:22:46;;;;;;;3.25;1.55;;;;;;;;;;5032778;27;95739;-76
2022/07/28 22:25:12;;;;;;;3.58;1.40;;;;;;;;;;5036272;27;97778;-75
2022/07/28 22:27:39;;;;;;;2.92;1.50;;;;;;;;;;5046220;27;95234;-75
2022/07/28 22:30:05;;;;;;;3.03;1.40;;;;;;;;;;5033605;28;96569;-76
2022/07/28 22:32:32;;;;;;;2.28;1.40;;;;;;;;;;5032316;27;96094;-76
2022/07/28 22:34:58;;;;;;;3.53;1.50;;;;;;;;;;5047804;27;95467;-76
2022/07/28 22:37:24;;;;;;;10.18;2.28;;;;;;;;;;5051331;27;96808;-76
2022/07/28 22:39:51;;;;;;;3.72;1.70;;;;;;;;;;5054533;27;97405;-76
2022/07/28 22:42:17;;;;;;;3.42;1.70;;;;;;;;;;5049140;27;97227;-76
2022/07/28 22:44:43;;;;;;;5.15;1.60;;;;;;;;;;5042652;27;96110;-76
2022/07/28 22:47:10;;;;;;;5.50;1.60;;;;;;;;;;5053199;27;95379;-75
2022/07/28 22:49:37;;;;;;;3.33;1.80;;;;;;;;;;5034480;27;97087;-76
2022/07/28 22:52:03;;;;;;;4.30;1.90;;;;;;;;;;5032067;27;97791;-76
2022/07/28 22:54:29;;;;;;;5.47;1.70;;;;;;;;;;5039564;27;95524;-76
2022/07/28 22:56:56;;;;;;;6.95;1.58;;;;;;;;;;5052989;27;96820;-75
2022/07/28 22:59:22;;;;;;;4.40;1.60;;;;;;;;;;5050214;27;97502;-75
2022/07/28 23:01:50;;;;;;;4.07;1.63;;;;;;;;;;5055343;27;95312;-75
2022/07/28 23:04:16;;;;;;;5.15;1.50;;;;;;;;;;5048180;27;97521;-75
2022/07/28 23:06:43;;;;;;;3.75;1.52;;;;;;;;;;5042812;27;95718;-75
2022/07/28 23:09:11;;;;;;;3.42;1.50;;;;;;;;;;5032648;28;96844;-76
2022/07/28 23:11:37;;;;;;;2.17;1.40;;;;;;;;;;5032195;28;101381;-76
2022/07/28 23:14:04;;;;;;;4.40;1.38;;;;;;;;;;5042404;27;95427;-75
2022/07/28 23:16:30;;;;;;;7.63;1.60;;;;;;;;;;5051830;27;96768;-76
2022/07/28 23:18:57;;;;;;;4.93;1.60;;;;;;;;;;5049995;27;97284;-76
2022/07/28 23:21:23;;;;;;;5.05;1.50;;;;;;;;;;5055063;27;95368;-76
2022/07/28 23:23:50;;;;;;;2.95;1.50;;;;;;;;;;5047125;27;97773;-75
2022/07/28 23:26:16;;;;;;;2.38;1.40;;;;;;;;;;5030655;27;96239;-75
2022/07/28 23:28:43;;;;;;;4.35;1.55;;;;;;;;;;5039350;27;96973;-75
2022/07/28 23:31:10;;;;;;;4.13;1.50;;;;;;;;;;5043638;27;97379;-75
2022/07/28 23:33:37;;;;;;;2.58;1.58;;;;;;;;;;5031323;27;95404;-75
2022/07/28 23:36:22;;;;;;;3.20;1.55;;;;;;;;;;5051697;27;95985;-75
2022/07/28 23:38:53;;;;;;;4.60;1.90;;;;;;;;;;5049778;27;96272;-75
2022/07/28 23:41:19;;;;;;;2.92;1.58;;;;;;;;;;5051931;27;95390;-75
2022/07/28 23:43:46;;;;;;;6.13;1.90;;;;;;;;;;5053478;27;96750;-75
2022/07/28 23:46:12;;;;;;;5.20;1.73;;;;;;;;;;5030743;27;96051;-75
2022/07/28 23:48:39;;;;;;;4.57;1.70;;;;;;;;;;5033357;27;96852;-75
2022/07/28 23:51:05;;;;;;;3.00;1.70;;;;;;;;;;5033516;28;97475;-75
2022/07/28 23:53:34;;;;;;;8.07;1.90;;;;;;;;;;5034942;28;95303;-75
2022/07/28 23:56:00;;;;;;;5.28;1.75;;;;;;;;;;5049902;27;96893;-75
2022/07/28 23:58:27;;;;;;;2.70;1.80;;;;;;;;;;5050085;27;98006;-75
